Aérodrome :
LOGIN :

S'inscrire | Disclaimer

   EN    FR    IT 

 










Légende :    VFR   VFR Marginal   IFR   IFR Intensif   IFR Très Intensif
Visi : 
Plafond : 
>= 8 km
>= 3000ft
5 à 8 km
1000 à 3000 ft
1500m à 5 km
500 à 1000 ft
800 à 1500m
200 à 500 ft
< 800m
< 200 ft
Symboles :   Orages  Brouillard  Fortes neiges  Fortes précipitations  Vent > 20 kt
SIGMETs :   Divers  Orages  Givrage  Turbulence  Onde Orograph.  Cendres Volcan.






- Altitude de l'aérodrome : 821 ft
- Code IATA : LYS


LFLL - Lyon St Exupéry / Satolas

DERNIER METAR :
  • 300900Z 36009KT 9999 BKN006 10/08 Q1012 BECMG BKN011

METARs EXPIRÉS :
  • 300830Z 34011KT 9999 BKN006 09/08 Q1011 BECMG BKN011
  • 300800Z 34008KT 9999 BKN005 09/08 Q1011 NOSIG
  • 300730Z 35005KT 320V020 9999 BKN004 09/09 Q1010 BECMG BKN006
  • 300700Z 01005KT 9000 BKN003 09/08 Q1010 BECMG BKN006
  • 300630Z 36006KT 9000 BKN004 08/08 Q1009 NOSIG

TAF AMD TAF LFLL
Valide du 30 à 07h jusqu'au 01 à 12h UTC


300728Z 3007/0112 34010KT 9999 BKN004
BECMG 3008/3010 BKN006
BECMG 3010/3013 BKN020
BECMG 3014/3016 NSC
TEMPO 3018/3023 VRB02KT
BECMG 3023/0101 18008KT
TEMPO 0107/0112 -RA BKN030



MET'MAP, la Météo Aéronautique d'un coup d'oeil ! - Copyright ORBIFLY Décembre 2007 - Disclaimer

ORBIFLY MET'MAP TEAM :

Programmation & Développement : Alexandra Zaïnal
Sur une idée originale de : Baudouin d'Aumeries
Soutien technique & logistique : Manuel Goepfert
Assistance : Marc-Olivier Méhu




SOURCES & CREDITS :

   NOAA